sensor_id;sensor_type;location;lat;lon;timestamp;temperature;humidity
24802;DHT22;12898;50.520;12.152;2024-02-14T00:00:12;1.70;99.90
24802;DHT22;12898;50.520;12.152;2024-02-14T00:02:43;1.70;99.90
24802;DHT22;12898;50.520;12.152;2024-02-14T00:05:09;1.70;99.90
24802;DHT22;12898;50.520;12.152;2024-02-14T00:07:37;1.70;99.90
24802;DHT22;12898;50.520;12.152;2024-02-14T00:10:03;1.70;99.90
24802;DHT22;12898;50.520;12.152;2024-02-14T00:12:31;1.70;99.90
24802;DHT22;12898;50.520;12.152;2024-02-14T00:15:02;1.70;99.90
24802;DHT22;12898;50.520;12.152;2024-02-14T00:17:29;1.70;99.90
24802;DHT22;12898;50.520;12.152;2024-02-14T00:19:55;1.70;99.90
24802;DHT22;12898;50.520;12.152;2024-02-14T00:22:21;1.80;99.90
24802;DHT22;12898;50.520;12.152;2024-02-14T00:24:47;1.80;99.90
24802;DHT22;12898;50.520;12.152;2024-02-14T00:27:13;1.80;99.90
24802;DHT22;12898;50.520;12.152;2024-02-14T00:29:40;1.90;99.90
24802;DHT22;12898;50.520;12.152;2024-02-14T00:32:06;1.90;99.90
24802;DHT22;12898;50.520;12.152;2024-02-14T00:34:32;1.90;99.90
24802;DHT22;12898;50.520;12.152;2024-02-14T00:36:58;2.00;99.90
24802;DHT22;12898;50.520;12.152;2024-02-14T00:39:24;2.00;99.90
24802;DHT22;12898;50.520;12.152;2024-02-14T00:41:49;2.00;99.90
24802;DHT22;12898;50.520;12.152;2024-02-14T00:44:18;2.10;99.90
24802;DHT22;12898;50.520;12.152;2024-02-14T00:46:45;2.10;99.90
24802;DHT22;12898;50.520;12.152;2024-02-14T00:49:11;2.10;99.90
24802;DHT22;12898;50.520;12.152;2024-02-14T00:51:36;2.20;99.90
24802;DHT22;12898;50.520;12.152;2024-02-14T00:54:06;2.20;99.90
24802;DHT22;12898;50.520;12.152;2024-02-14T00:56:33;2.20;99.90
24802;DHT22;12898;50.520;12.152;2024-02-14T00:59:00;2.20;99.90
24802;DHT22;12898;50.520;12.152;2024-02-14T01:01:26;2.20;99.90
24802;DHT22;12898;50.520;12.152;2024-02-14T01:03:52;2.20;99.90
24802;DHT22;12898;50.520;12.152;2024-02-14T01:06:18;2.20;99.90
24802;DHT22;12898;50.520;12.152;2024-02-14T01:08:45;2.20;99.90
24802;DHT22;12898;50.520;12.152;2024-02-14T01:11:11;2.30;99.90
24802;DHT22;12898;50.520;12.152;2024-02-14T01:13:36;2.30;99.90
24802;DHT22;12898;50.520;12.152;2024-02-14T01:16:03;2.30;99.90
24802;DHT22;12898;50.520;12.152;2024-02-14T01:18:33;2.30;99.90
24802;DHT22;12898;50.520;12.152;2024-02-14T01:20:59;2.30;99.90
24802;DHT22;12898;50.520;12.152;2024-02-14T01:23:26;2.40;99.90
24802;DHT22;12898;50.520;12.152;2024-02-14T01:25:52;2.40;99.90
24802;DHT22;12898;50.520;12.152;2024-02-14T01:28:20;2.40;99.90
24802;DHT22;12898;50.520;12.152;2024-02-14T01:30:46;2.40;99.90
24802;DHT22;12898;50.520;12.152;2024-02-14T01:33:11;2.50;99.90
24802;DHT22;12898;50.520;12.152;2024-02-14T01:35:37;2.50;99.90
24802;DHT22;12898;50.520;12.152;2024-02-14T01:38:04;2.50;99.90
24802;DHT22;12898;50.520;12.152;2024-02-14T01:40:31;2.60;99.90
24802;DHT22;12898;50.520;12.152;2024-02-14T01:42:57;2.60;99.90
24802;DHT22;12898;50.520;12.152;2024-02-14T01:45:23;2.60;99.90
24802;DHT22;12898;50.520;12.152;2024-02-14T01:47:49;2.70;99.90
24802;DHT22;12898;50.520;12.152;2024-02-14T01:50:16;2.70;99.90
24802;DHT22;12898;50.520;12.152;2024-02-14T01:52:45;2.70;99.90
24802;DHT22;12898;50.520;12.152;2024-02-14T01:55:11;2.80;99.90
24802;DHT22;12898;50.520;12.152;2024-02-14T01:57:38;2.80;99.90
24802;DHT22;12898;50.520;12.152;2024-02-14T02:00:05;2.90;99.90
24802;DHT22;12898;50.520;12.152;2024-02-14T02:02:35;2.90;99.90
24802;DHT22;12898;50.520;12.152;2024-02-14T02:05:05;2.90;99.90
24802;DHT22;12898;50.520;12.152;2024-02-14T02:07:32;2.90;99.90
24802;DHT22;12898;50.520;12.152;2024-02-14T02:09:58;2.90;99.90
24802;DHT22;12898;50.520;12.152;2024-02-14T02:12:24;2.90;99.90
24802;DHT22;12898;50.520;12.152;2024-02-14T02:14:53;2.90;99.90
24802;DHT22;12898;50.520;12.152;2024-02-14T02:17:19;3.00;99.90
24802;DHT22;12898;50.520;12.152;2024-02-14T02:19:46;3.00;99.90
24802;DHT22;12898;50.520;12.152;2024-02-14T02:22:11;3.00;99.90
24802;DHT22;12898;50.520;12.152;2024-02-14T02:24:37;3.00;99.90
24802;DHT22;12898;50.520;12.152;2024-02-14T02:27:03;3.00;99.90
24802;DHT22;12898;50.520;12.152;2024-02-14T02:29:29;3.00;99.90
24802;DHT22;12898;50.520;12.152;2024-02-14T02:31:58;3.00;99.90
24802;DHT22;12898;50.520;12.152;2024-02-14T02:34:23;3.00;99.90
24802;DHT22;12898;50.520;12.152;2024-02-14T02:36:49;3.00;99.90
24802;DHT22;12898;50.520;12.152;2024-02-14T02:39:16;3.00;99.90
24802;DHT22;12898;50.520;12.152;2024-02-14T02:41:42;3.10;99.90
24802;DHT22;12898;50.520;12.152;2024-02-14T02:44:08;3.10;99.90
24802;DHT22;12898;50.520;12.152;2024-02-14T02:46:33;3.10;99.90
24802;DHT22;12898;50.520;12.152;2024-02-14T02:48:59;3.10;99.90
24802;DHT22;12898;50.520;12.152;2024-02-14T02:51:25;3.10;99.90
24802;DHT22;12898;50.520;12.152;2024-02-14T02:53:51;3.10;99.90
24802;DHT22;12898;50.520;12.152;2024-02-14T02:56:19;3.10;99.90
24802;DHT22;12898;50.520;12.152;2024-02-14T02:58:47;3.10;99.90
24802;DHT22;12898;50.520;12.152;2024-02-14T03:01:14;3.10;99.90
24802;DHT22;12898;50.520;12.152;2024-02-14T03:03:40;3.20;99.90
24802;DHT22;12898;50.520;12.152;2024-02-14T03:06:06;3.20;99.90
24802;DHT22;12898;50.520;12.152;2024-02-14T03:08:33;3.20;99.90
24802;DHT22;12898;50.520;12.152;2024-02-14T03:11:08;3.20;99.90
24802;DHT22;12898;50.520;12.152;2024-02-14T03:13:34;3.20;99.90
24802;DHT22;12898;50.520;12.152;2024-02-14T03:16:01;3.20;99.90
24802;DHT22;12898;50.520;12.152;2024-02-14T03:18:27;3.30;99.90
24802;DHT22;12898;50.520;12.152;2024-02-14T03:20:53;3.30;99.90
24802;DHT22;12898;50.520;12.152;2024-02-14T03:23:21;3.40;99.90
24802;DHT22;12898;50.520;12.152;2024-02-14T03:25:48;3.40;99.90
24802;DHT22;12898;50.520;12.152;2024-02-14T03:28:13;3.40;99.90
24802;DHT22;12898;50.520;12.152;2024-02-14T03:30:39;3.40;99.90
24802;DHT22;12898;50.520;12.152;2024-02-14T03:33:06;3.40;99.90
24802;DHT22;12898;50.520;12.152;2024-02-14T03:35:33;3.50;99.90
24802;DHT22;12898;50.520;12.152;2024-02-14T03:38:01;3.40;99.90
24802;DHT22;12898;50.520;12.152;2024-02-14T03:40:27;3.40;99.90
24802;DHT22;12898;50.520;12.152;2024-02-14T03:42:58;3.50;99.90
24802;DHT22;12898;50.520;12.152;2024-02-14T03:45:24;3.40;99.90
24802;DHT22;12898;50.520;12.152;2024-02-14T03:47:49;3.40;99.90
24802;DHT22;12898;50.520;12.152;2024-02-14T03:50:15;3.40;99.90
24802;DHT22;12898;50.520;12.152;2024-02-14T03:52:41;3.30;99.90
24802;DHT22;12898;50.520;12.152;2024-02-14T03:55:10;3.30;99.90
24802;DHT22;12898;50.520;12.152;2024-02-14T03:57:39;3.30;99.90
24802;DHT22;12898;50.520;12.152;2024-02-14T04:00:05;3.30;99.90
24802;DHT22;12898;50.520;12.152;2024-02-14T04:02:35;3.30;99.90
24802;DHT22;12898;50.520;12.152;2024-02-14T04:05:01;3.30;99.90
24802;DHT22;12898;50.520;12.152;2024-02-14T04:07:32;3.30;99.90
24802;DHT22;12898;50.520;12.152;2024-02-14T04:09:59;3.30;99.90
24802;DHT22;12898;50.520;12.152;2024-02-14T04:12:25;3.30;99.90
24802;DHT22;12898;50.520;12.152;2024-02-14T04:14:51;3.30;99.90
24802;DHT22;12898;50.520;12.152;2024-02-14T04:17:17;3.30;99.90
24802;DHT22;12898;50.520;12.152;2024-02-14T04:19:42;3.30;99.90
24802;DHT22;12898;50.520;12.152;2024-02-14T04:22:08;3.40;99.90
24802;DHT22;12898;50.520;12.152;2024-02-14T04:24:34;3.40;99.90
24802;DHT22;12898;50.520;12.152;2024-02-14T04:27:00;3.40;99.90
24802;DHT22;12898;50.520;12.152;2024-02-14T04:29:29;3.50;99.90
24802;DHT22;12898;50.520;12.152;2024-02-14T04:31:59;3.50;99.90
24802;DHT22;12898;50.520;12.152;2024-02-14T04:34:25;3.50;99.90
24802;DHT22;12898;50.520;12.152;2024-02-14T04:36:51;3.50;99.90
24802;DHT22;12898;50.520;12.152;2024-02-14T04:39:17;3.50;99.90
24802;DHT22;12898;50.520;12.152;2024-02-14T04:41:43;3.50;99.90
24802;DHT22;12898;50.520;12.152;2024-02-14T04:44:09;3.50;99.90
24802;DHT22;12898;50.520;12.152;2024-02-14T04:46:34;3.50;99.90
24802;DHT22;12898;50.520;12.152;2024-02-14T04:49:01;3.60;99.90
24802;DHT22;12898;50.520;12.152;2024-02-14T04:51:30;3.60;99.90
24802;DHT22;12898;50.520;12.152;2024-02-14T04:53:57;3.60;99.90
24802;DHT22;12898;50.520;12.152;2024-02-14T04:56:26;3.60;99.90
24802;DHT22;12898;50.520;12.152;2024-02-14T04:58:55;3.60;99.90
24802;DHT22;12898;50.520;12.152;2024-02-14T05:01:21;3.60;99.90
24802;DHT22;12898;50.520;12.152;2024-02-14T05:03:47;3.60;99.90
24802;DHT22;12898;50.520;12.152;2024-02-14T05:06:15;3.60;99.90
24802;DHT22;12898;50.520;12.152;2024-02-14T05:08:41;3.70;99.90
24802;DHT22;12898;50.520;12.152;2024-02-14T05:11:06;3.70;99.90
24802;DHT22;12898;50.520;12.152;2024-02-14T05:13:32;3.70;99.90
24802;DHT22;12898;50.520;12.152;2024-02-14T05:16:01;3.80;99.90
24802;DHT22;12898;50.520;12.152;2024-02-14T05:18:27;3.90;99.90
24802;DHT22;12898;50.520;12.152;2024-02-14T05:20:53;3.90;99.90
24802;DHT22;12898;50.520;12.152;2024-02-14T05:23:19;3.90;99.90
24802;DHT22;12898;50.520;12.152;2024-02-14T05:25:45;3.90;99.90
24802;DHT22;12898;50.520;12.152;2024-02-14T05:28:11;4.00;99.90
24802;DHT22;12898;50.520;12.152;2024-02-14T05:30:40;3.90;99.90
24802;DHT22;12898;50.520;12.152;2024-02-14T05:33:06;4.00;99.90
24802;DHT22;12898;50.520;12.152;2024-02-14T05:35:32;4.10;99.90
24802;DHT22;12898;50.520;12.152;2024-02-14T05:37:57;4.10;99.90
24802;DHT22;12898;50.520;12.152;2024-02-14T05:40:23;4.20;99.90
24802;DHT22;12898;50.520;12.152;2024-02-14T05:42:49;4.20;99.90
24802;DHT22;12898;50.520;12.152;2024-02-14T05:45:15;4.20;99.90
24802;DHT22;12898;50.520;12.152;2024-02-14T05:47:42;4.20;99.90
24802;DHT22;12898;50.520;12.152;2024-02-14T05:50:08;4.20;99.90
24802;DHT22;12898;50.520;12.152;2024-02-14T05:52:37;4.20;99.90
24802;DHT22;12898;50.520;12.152;2024-02-14T05:55:03;4.20;99.90
24802;DHT22;12898;50.520;12.152;2024-02-14T05:57:30;4.20;99.90
24802;DHT22;12898;50.520;12.152;2024-02-14T05:59:56;4.10;99.90
24802;DHT22;12898;50.520;12.152;2024-02-14T06:02:21;4.20;99.90
24802;DHT22;12898;50.520;12.152;2024-02-14T06:04:47;4.10;99.90
24802;DHT22;12898;50.520;12.152;2024-02-14T06:07:13;4.10;99.90
24802;DHT22;12898;50.520;12.152;2024-02-14T06:09:39;4.20;99.90
24802;DHT22;12898;50.520;12.152;2024-02-14T06:12:05;4.10;99.90
24802;DHT22;12898;50.520;12.152;2024-02-14T06:14:31;4.10;99.90
24802;DHT22;12898;50.520;12.152;2024-02-14T06:16:59;4.10;99.90
24802;DHT22;12898;50.520;12.152;2024-02-14T06:19:26;4.10;99.90
24802;DHT22;12898;50.520;12.152;2024-02-14T06:21:52;4.20;99.90
24802;DHT22;12898;50.520;12.152;2024-02-14T06:24:18;4.30;99.90
24802;DHT22;12898;50.520;12.152;2024-02-14T06:26:47;4.30;99.90
24802;DHT22;12898;50.520;12.152;2024-02-14T06:29:13;4.30;99.90
24802;DHT22;12898;50.520;12.152;2024-02-14T06:31:39;4.40;99.90
24802;DHT22;12898;50.520;12.152;2024-02-14T06:34:05;4.50;99.90
24802;DHT22;12898;50.520;12.152;2024-02-14T06:36:32;4.50;99.90
24802;DHT22;12898;50.520;12.152;2024-02-14T06:38:58;4.50;99.90
24802;DHT22;12898;50.520;12.152;2024-02-14T06:41:24;4.50;99.90
24802;DHT22;12898;50.520;12.152;2024-02-14T06:43:49;4.60;99.90
24802;DHT22;12898;50.520;12.152;2024-02-14T06:46:15;4.60;99.90
24802;DHT22;12898;50.520;12.152;2024-02-14T06:48:41;4.70;99.90
24802;DHT22;12898;50.520;12.152;2024-02-14T06:51:07;4.80;99.90
24802;DHT22;12898;50.520;12.152;2024-02-14T06:53:33;4.80;99.90
24802;DHT22;12898;50.520;12.152;2024-02-14T06:55:59;4.80;99.90
24802;DHT22;12898;50.520;12.152;2024-02-14T06:58:25;4.80;99.90
24802;DHT22;12898;50.520;12.152;2024-02-14T07:00:50;4.90;99.90
24802;DHT22;12898;50.520;12.152;2024-02-14T07:03:16;4.90;99.90
24802;DHT22;12898;50.520;12.152;2024-02-14T07:05:42;5.00;99.90
24802;DHT22;12898;50.520;12.152;2024-02-14T07:08:08;5.00;99.90
24802;DHT22;12898;50.520;12.152;2024-02-14T07:10:33;5.00;99.90
24802;DHT22;12898;50.520;12.152;2024-02-14T07:12:59;5.00;99.90
24802;DHT22;12898;50.520;12.152;2024-02-14T07:15:25;5.10;99.90
24802;DHT22;12898;50.520;12.152;2024-02-14T07:17:54;5.10;99.90
24802;DHT22;12898;50.520;12.152;2024-02-14T07:20:24;5.30;99.90
24802;DHT22;12898;50.520;12.152;2024-02-14T07:22:52;5.40;99.90
24802;DHT22;12898;50.520;12.152;2024-02-14T07:25:22;5.40;99.90
24802;DHT22;12898;50.520;12.152;2024-02-14T07:27:49;5.50;99.90
24802;DHT22;12898;50.520;12.152;2024-02-14T07:30:16;5.50;99.90
24802;DHT22;12898;50.520;12.152;2024-02-14T07:32:43;5.70;99.90
24802;DHT22;12898;50.520;12.152;2024-02-14T07:35:10;5.80;99.90
24802;DHT22;12898;50.520;12.152;2024-02-14T07:37:36;5.90;99.90
24802;DHT22;12898;50.520;12.152;2024-02-14T07:40:02;5.90;99.90
24802;DHT22;12898;50.520;12.152;2024-02-14T07:42:28;6.00;99.90
24802;DHT22;12898;50.520;12.152;2024-02-14T07:44:54;6.10;99.90
24802;DHT22;12898;50.520;12.152;2024-02-14T07:47:21;6.10;99.90
24802;DHT22;12898;50.520;12.152;2024-02-14T07:49:47;6.10;99.90
24802;DHT22;12898;50.520;12.152;2024-02-14T07:52:13;6.10;99.90
24802;DHT22;12898;50.520;12.152;2024-02-14T07:54:39;6.10;99.90
24802;DHT22;12898;50.520;12.152;2024-02-14T07:57:05;6.20;99.90
24802;DHT22;12898;50.520;12.152;2024-02-14T07:59:31;6.30;99.90
24802;DHT22;12898;50.520;12.152;2024-02-14T08:01:56;6.30;99.90
24802;DHT22;12898;50.520;12.152;2024-02-14T08:04:22;6.40;99.90
24802;DHT22;12898;50.520;12.152;2024-02-14T08:06:48;6.40;99.90
24802;DHT22;12898;50.520;12.152;2024-02-14T08:09:17;6.50;99.90
24802;DHT22;12898;50.520;12.152;2024-02-14T08:11:42;6.60;99.90
24802;DHT22;12898;50.520;12.152;2024-02-14T08:14:08;6.70;99.90
24802;DHT22;12898;50.520;12.152;2024-02-14T08:16:34;6.80;99.90
24802;DHT22;12898;50.520;12.152;2024-02-14T08:19:02;6.80;99.90
24802;DHT22;12898;50.520;12.152;2024-02-14T08:21:28;6.90;99.90
24802;DHT22;12898;50.520;12.152;2024-02-14T08:23:54;6.90;99.90
24802;DHT22;12898;50.520;12.152;2024-02-14T08:26:21;6.90;99.90
24802;DHT22;12898;50.520;12.152;2024-02-14T08:28:48;6.80;99.90
24802;DHT22;12898;50.520;12.152;2024-02-14T08:31:14;6.90;99.90
24802;DHT22;12898;50.520;12.152;2024-02-14T08:33:40;7.10;99.90
24802;DHT22;12898;50.520;12.152;2024-02-14T08:36:06;7.30;99.90
24802;DHT22;12898;50.520;12.152;2024-02-14T08:38:33;7.40;99.90
24802;DHT22;12898;50.520;12.152;2024-02-14T08:41:01;7.40;99.90
24802;DHT22;12898;50.520;12.152;2024-02-14T08:43:28;7.40;99.90
24802;DHT22;12898;50.520;12.152;2024-02-14T08:45:54;7.30;99.90
24802;DHT22;12898;50.520;12.152;2024-02-14T08:48:21;7.20;99.90
24802;DHT22;12898;50.520;12.152;2024-02-14T08:50:47;7.10;99.90
24802;DHT22;12898;50.520;12.152;2024-02-14T08:53:13;7.00;99.90
24802;DHT22;12898;50.520;12.152;2024-02-14T08:55:42;7.00;99.90
24802;DHT22;12898;50.520;12.152;2024-02-14T08:58:08;6.90;99.90
24802;DHT22;12898;50.520;12.152;2024-02-14T09:00:37;7.00;99.90
24802;DHT22;12898;50.520;12.152;2024-02-14T09:03:04;7.00;99.90
24802;DHT22;12898;50.520;12.152;2024-02-14T09:05:30;7.00;99.90
24802;DHT22;12898;50.520;12.152;2024-02-14T09:07:56;7.10;99.90
24802;DHT22;12898;50.520;12.152;2024-02-14T09:10:22;7.20;99.90
24802;DHT22;12898;50.520;12.152;2024-02-14T09:12:48;7.20;99.90
24802;DHT22;12898;50.520;12.152;2024-02-14T09:15:14;7.30;99.90
24802;DHT22;12898;50.520;12.152;2024-02-14T09:17:40;7.40;99.90
24802;DHT22;12898;50.520;12.152;2024-02-14T09:20:08;7.40;99.90
24802;DHT22;12898;50.520;12.152;2024-02-14T09:22:38;7.50;99.90
24802;DHT22;12898;50.520;12.152;2024-02-14T09:25:07;7.50;99.90
24802;DHT22;12898;50.520;12.152;2024-02-14T09:27:35;7.40;99.90
24802;DHT22;12898;50.520;12.152;2024-02-14T09:30:02;7.40;99.90
24802;DHT22;12898;50.520;12.152;2024-02-14T09:32:32;7.30;99.90
24802;DHT22;12898;50.520;12.152;2024-02-14T09:34:59;7.30;99.90
24802;DHT22;12898;50.520;12.152;2024-02-14T09:37:27;7.30;99.90
24802;DHT22;12898;50.520;12.152;2024-02-14T09:39:53;7.40;99.90
24802;DHT22;12898;50.520;12.152;2024-02-14T09:42:28;7.50;99.90
24802;DHT22;12898;50.520;12.152;2024-02-14T09:45:01;7.60;99.90
24802;DHT22;12898;50.520;12.152;2024-02-14T09:47:28;7.80;99.90
24802;DHT22;12898;50.520;12.152;2024-02-14T09:49:58;8.00;99.90
24802;DHT22;12898;50.520;12.152;2024-02-14T09:52:25;8.00;99.90
24802;DHT22;12898;50.520;12.152;2024-02-14T09:54:52;8.10;99.90
24802;DHT22;12898;50.520;12.152;2024-02-14T09:57:18;8.00;99.90
24802;DHT22;12898;50.520;12.152;2024-02-14T09:59:45;8.00;99.90
24802;DHT22;12898;50.520;12.152;2024-02-14T10:02:12;8.00;99.90
24802;DHT22;12898;50.520;12.152;2024-02-14T10:04:38;8.00;99.90
24802;DHT22;12898;50.520;12.152;2024-02-14T10:07:04;8.00;99.90
24802;DHT22;12898;50.520;12.152;2024-02-14T10:09:30;8.00;99.90
24802;DHT22;12898;50.520;12.152;2024-02-14T10:11:56;7.90;99.90
24802;DHT22;12898;50.520;12.152;2024-02-14T10:14:23;7.90;99.90
24802;DHT22;12898;50.520;12.152;2024-02-14T10:16:49;7.80;99.90
24802;DHT22;12898;50.520;12.152;2024-02-14T10:19:18;7.70;99.90
24802;DHT22;12898;50.520;12.152;2024-02-14T10:21:58;7.70;99.90
24802;DHT22;12898;50.520;12.152;2024-02-14T10:24:25;7.60;99.90
24802;DHT22;12898;50.520;12.152;2024-02-14T10:26:54;7.70;99.90
24802;DHT22;12898;50.520;12.152;2024-02-14T10:29:23;7.70;99.90
24802;DHT22;12898;50.520;12.152;2024-02-14T10:31:50;7.80;99.90
24802;DHT22;12898;50.520;12.152;2024-02-14T10:34:16;7.90;99.90
24802;DHT22;12898;50.520;12.152;2024-02-14T10:36:45;7.80;99.90
24802;DHT22;12898;50.520;12.152;2024-02-14T10:39:11;7.80;99.90
24802;DHT22;12898;50.520;12.152;2024-02-14T10:41:37;7.90;99.90
24802;DHT22;12898;50.520;12.152;2024-02-14T10:44:04;7.90;99.90
24802;DHT22;12898;50.520;12.152;2024-02-14T10:46:32;7.90;99.90
24802;DHT22;12898;50.520;12.152;2024-02-14T10:49:03;7.90;99.90
24802;DHT22;12898;50.520;12.152;2024-02-14T10:51:33;7.90;99.90
24802;DHT22;12898;50.520;12.152;2024-02-14T10:54:13;8.00;99.90
24802;DHT22;12898;50.520;12.152;2024-02-14T10:56:45;8.10;99.90
24802;DHT22;12898;50.520;12.152;2024-02-14T10:59:16;8.10;99.90
24802;DHT22;12898;50.520;12.152;2024-02-14T11:01:44;8.20;99.90
24802;DHT22;12898;50.520;12.152;2024-02-14T11:04:10;8.20;99.90
24802;DHT22;12898;50.520;12.152;2024-02-14T11:06:47;8.20;99.90
24802;DHT22;12898;50.520;12.152;2024-02-14T11:09:13;8.20;99.90
24802;DHT22;12898;50.520;12.152;2024-02-14T11:11:42;8.20;99.90
24802;DHT22;12898;50.520;12.152;2024-02-14T11:14:15;8.20;99.90
24802;DHT22;12898;50.520;12.152;2024-02-14T11:16:45;8.20;99.90
24802;DHT22;12898;50.520;12.152;2024-02-14T11:19:13;8.20;99.90
24802;DHT22;12898;50.520;12.152;2024-02-14T11:21:46;8.20;99.90
24802;DHT22;12898;50.520;12.152;2024-02-14T11:24:13;8.30;99.90
24802;DHT22;12898;50.520;12.152;2024-02-14T11:26:47;8.40;99.90
24802;DHT22;12898;50.520;12.152;2024-02-14T11:29:18;8.40;99.90
24802;DHT22;12898;50.520;12.152;2024-02-14T11:31:45;8.20;99.90
24802;DHT22;12898;50.520;12.152;2024-02-14T11:34:14;8.20;99.90
24802;DHT22;12898;50.520;12.152;2024-02-14T11:36:44;8.20;99.90
24802;DHT22;12898;50.520;12.152;2024-02-14T11:39:11;8.20;99.90
24802;DHT22;12898;50.520;12.152;2024-02-14T11:41:39;8.10;99.90
24802;DHT22;12898;50.520;12.152;2024-02-14T11:44:07;8.10;99.90
24802;DHT22;12898;50.520;12.152;2024-02-14T11:46:35;8.10;99.90
24802;DHT22;12898;50.520;12.152;2024-02-14T11:49:03;8.10;99.90
24802;DHT22;12898;50.520;12.152;2024-02-14T11:51:30;8.10;99.90
24802;DHT22;12898;50.520;12.152;2024-02-14T11:53:58;8.20;99.90
24802;DHT22;12898;50.520;12.152;2024-02-14T11:56:33;8.30;99.90
24802;DHT22;12898;50.520;12.152;2024-02-14T11:59:02;8.30;99.90
24802;DHT22;12898;50.520;12.152;2024-02-14T12:01:35;8.30;99.90
24802;DHT22;12898;50.520;12.152;2024-02-14T12:04:04;8.30;99.90
24802;DHT22;12898;50.520;12.152;2024-02-14T12:06:33;8.40;99.90
24802;DHT22;12898;50.520;12.152;2024-02-14T12:09:04;8.40;99.90
24802;DHT22;12898;50.520;12.152;2024-02-14T12:11:40;8.50;99.90
24802;DHT22;12898;50.520;12.152;2024-02-14T12:14:09;8.60;99.90
24802;DHT22;12898;50.520;12.152;2024-02-14T12:16:36;8.70;99.90
24802;DHT22;12898;50.520;12.152;2024-02-14T12:21:39;8.80;99.90
24802;DHT22;12898;50.520;12.152;2024-02-14T12:24:11;8.70;99.90
24802;DHT22;12898;50.520;12.152;2024-02-14T12:26:40;8.60;99.90
24802;DHT22;12898;50.520;12.152;2024-02-14T12:29:07;8.70;99.90
24802;DHT22;12898;50.520;12.152;2024-02-14T12:31:34;8.70;99.90
24802;DHT22;12898;50.520;12.152;2024-02-14T12:34:03;8.70;99.90
24802;DHT22;12898;50.520;12.152;2024-02-14T12:36:33;8.80;99.90
24802;DHT22;12898;50.520;12.152;2024-02-14T12:39:03;8.80;99.90
24802;DHT22;12898;50.520;12.152;2024-02-14T12:41:32;9.00;99.90
24802;DHT22;12898;50.520;12.152;2024-02-14T12:44:00;8.90;99.90
24802;DHT22;12898;50.520;12.152;2024-02-14T12:46:27;8.90;99.90
24802;DHT22;12898;50.520;12.152;2024-02-14T12:48:53;8.90;99.90
24802;DHT22;12898;50.520;12.152;2024-02-14T12:51:19;8.80;99.90
24802;DHT22;12898;50.520;12.152;2024-02-14T12:53:45;8.90;99.90
24802;DHT22;12898;50.520;12.152;2024-02-14T12:56:11;9.00;99.90
24802;DHT22;12898;50.520;12.152;2024-02-14T12:58:37;9.00;99.90
24802;DHT22;12898;50.520;12.152;2024-02-14T13:01:02;9.00;99.90
24802;DHT22;12898;50.520;12.152;2024-02-14T13:03:32;9.10;99.90
24802;DHT22;12898;50.520;12.152;2024-02-14T13:05:59;9.30;99.90
24802;DHT22;12898;50.520;12.152;2024-02-14T13:08:25;9.40;99.90
24802;DHT22;12898;50.520;12.152;2024-02-14T13:10:52;9.40;99.90
24802;DHT22;12898;50.520;12.152;2024-02-14T13:13:18;9.50;99.90
24802;DHT22;12898;50.520;12.152;2024-02-14T13:15:44;9.60;99.90
24802;DHT22;12898;50.520;12.152;2024-02-14T13:18:10;9.70;99.90
24802;DHT22;12898;50.520;12.152;2024-02-14T13:20:36;9.70;99.90
24802;DHT22;12898;50.520;12.152;2024-02-14T13:23:03;9.70;99.90
24802;DHT22;12898;50.520;12.152;2024-02-14T13:25:30;9.50;99.90
24802;DHT22;12898;50.520;12.152;2024-02-14T13:27:56;9.40;99.90
24802;DHT22;12898;50.520;12.152;2024-02-14T13:30:24;9.40;99.90
24802;DHT22;12898;50.520;12.152;2024-02-14T13:32:49;9.50;99.90
24802;DHT22;12898;50.520;12.152;2024-02-14T13:35:15;9.60;99.90
24802;DHT22;12898;50.520;12.152;2024-02-14T13:37:41;9.70;99.90
24802;DHT22;12898;50.520;12.152;2024-02-14T13:40:07;9.80;99.90
24802;DHT22;12898;50.520;12.152;2024-02-14T13:42:39;9.80;99.90
24802;DHT22;12898;50.520;12.152;2024-02-14T13:45:05;9.70;99.90
24802;DHT22;12898;50.520;12.152;2024-02-14T13:47:41;9.60;99.90
24802;DHT22;12898;50.520;12.152;2024-02-14T13:50:11;9.50;99.90
24802;DHT22;12898;50.520;12.152;2024-02-14T13:52:38;9.50;99.90
24802;DHT22;12898;50.520;12.152;2024-02-14T13:55:04;9.50;99.90
24802;DHT22;12898;50.520;12.152;2024-02-14T13:57:39;9.50;99.90
24802;DHT22;12898;50.520;12.152;2024-02-14T14:00:07;9.40;99.90
24802;DHT22;12898;50.520;12.152;2024-02-14T14:02:37;9.40;99.90
24802;DHT22;12898;50.520;12.152;2024-02-14T14:05:08;9.30;99.90
24802;DHT22;12898;50.520;12.152;2024-02-14T14:07:38;9.20;99.90
24802;DHT22;12898;50.520;12.152;2024-02-14T14:10:10;9.20;99.90
24802;DHT22;12898;50.520;12.152;2024-02-14T14:12:36;9.30;99.90
24802;DHT22;12898;50.520;12.152;2024-02-14T14:15:02;9.30;99.90
24802;DHT22;12898;50.520;12.152;2024-02-14T14:17:29;9.20;99.90
24802;DHT22;12898;50.520;12.152;2024-02-14T14:19:55;9.20;99.90
24802;DHT22;12898;50.520;12.152;2024-02-14T14:22:20;9.10;99.90
24802;DHT22;12898;50.520;12.152;2024-02-14T14:24:47;9.00;99.90
24802;DHT22;12898;50.520;12.152;2024-02-14T14:27:13;8.90;99.90
24802;DHT22;12898;50.520;12.152;2024-02-14T14:29:40;8.90;99.90
24802;DHT22;12898;50.520;12.152;2024-02-14T14:32:12;8.80;99.90
24802;DHT22;12898;50.520;12.152;2024-02-14T14:34:37;8.70;99.90
24802;DHT22;12898;50.520;12.152;2024-02-14T14:37:03;8.70;99.90
24802;DHT22;12898;50.520;12.152;2024-02-14T14:39:29;8.70;99.90
24802;DHT22;12898;50.520;12.152;2024-02-14T14:41:56;8.70;99.90
24802;DHT22;12898;50.520;12.152;2024-02-14T14:44:27;8.70;99.90
24802;DHT22;12898;50.520;12.152;2024-02-14T14:46:53;8.70;99.90
24802;DHT22;12898;50.520;12.152;2024-02-14T14:49:19;8.70;99.90
24802;DHT22;12898;50.520;12.152;2024-02-14T14:51:45;8.70;99.90
24802;DHT22;12898;50.520;12.152;2024-02-14T14:54:11;8.70;99.90
24802;DHT22;12898;50.520;12.152;2024-02-14T14:56:37;8.70;99.90
24802;DHT22;12898;50.520;12.152;2024-02-14T14:59:02;8.70;99.90
24802;DHT22;12898;50.520;12.152;2024-02-14T15:01:30;8.70;99.90
24802;DHT22;12898;50.520;12.152;2024-02-14T15:03:56;8.70;99.90
24802;DHT22;12898;50.520;12.152;2024-02-14T15:06:22;8.70;99.90
24802;DHT22;12898;50.520;12.152;2024-02-14T15:08:48;8.60;99.90
24802;DHT22;12898;50.520;12.152;2024-02-14T15:11:14;8.60;99.90
24802;DHT22;12898;50.520;12.152;2024-02-14T15:13:42;8.60;99.90
24802;DHT22;12898;50.520;12.152;2024-02-14T15:16:10;8.60;99.90
24802;DHT22;12898;50.520;12.152;2024-02-14T15:18:36;8.60;99.90
24802;DHT22;12898;50.520;12.152;2024-02-14T15:21:02;8.50;99.90
24802;DHT22;12898;50.520;12.152;2024-02-14T15:23:28;8.50;99.90
24802;DHT22;12898;50.520;12.152;2024-02-14T15:25:54;8.50;99.90
24802;DHT22;12898;50.520;12.152;2024-02-14T15:28:28;8.50;99.90
24802;DHT22;12898;50.520;12.152;2024-02-14T15:30:56;8.40;99.90